Kinuso, Canada
Current Conditions -  °F | °C
As of 5:00 AM on Thursday 23 Oct 2014 (Local Time) from CYZH Reporting Station
Overcast Overcast  
Wind Chill: 34°   Ceiling: 19000
Heat Index: 34°   Visibility: 9mi
Dew Point: 30°   Wind: 2mph
Humidity: 87%   Direction: 110°ESE
Pressure: 29.49"   Gusts: NA
Location:  55.33°N, 115.43°W
Report Text: CYZH 231100Z AUTO 11002KT 9SM OVC190 01/M01 A2949 RMK SLP003
Loading
Personal Weather Stations






























Interactive Weather Map
Tropical Storm Tracking
New forecast layout! Learn more

10-Day Weather Forecast

Advertisements
Track Severe Weather on mobile